sensor_id;sensor_type;location;lat;lon;timestamp;P1;durP1;ratioP1;P2;durP2;ratioP2
75435;SDS011;64014;53.432;14.534;2022-11-20T00:01:26;13.60;;;6.57;;
75435;SDS011;64014;53.432;14.534;2022-11-20T00:03:53;11.27;;;5.72;;
75435;SDS011;64014;53.432;14.534;2022-11-20T00:06:20;10.68;;;6.15;;
75435;SDS011;64014;53.432;14.534;2022-11-20T00:08:47;10.30;;;5.25;;
75435;SDS011;64014;53.432;14.534;2022-11-20T00:11:18;11.07;;;5.40;;
75435;SDS011;64014;53.432;14.534;2022-11-20T00:13:46;10.93;;;5.53;;
75435;SDS011;64014;53.432;14.534;2022-11-20T00:16:14;13.80;;;5.65;;
75435;SDS011;64014;53.432;14.534;2022-11-20T00:18:41;9.25;;;5.20;;
75435;SDS011;64014;53.432;14.534;2022-11-20T00:21:10;13.00;;;6.13;;
75435;SDS011;64014;53.432;14.534;2022-11-20T00:23:38;11.65;;;5.53;;
75435;SDS011;64014;53.432;14.534;2022-11-20T00:26:05;10.52;;;4.18;;
75435;SDS011;64014;53.432;14.534;2022-11-20T00:28:31;9.40;;;4.75;;
75435;SDS011;64014;53.432;14.534;2022-11-20T00:31:11;8.35;;;4.72;;
75435;SDS011;64014;53.432;14.534;2022-11-20T00:33:40;8.07;;;4.32;;
75435;SDS011;64014;53.432;14.534;2022-11-20T00:36:09;9.10;;;4.25;;
75435;SDS011;64014;53.432;14.534;2022-11-20T00:38:36;8.02;;;4.30;;
75435;SDS011;64014;53.432;14.534;2022-11-20T00:41:03;7.35;;;3.88;;
75435;SDS011;64014;53.432;14.534;2022-11-20T00:43:30;7.63;;;4.45;;
75435;SDS011;64014;53.432;14.534;2022-11-20T00:45:57;8.30;;;4.72;;
75435;SDS011;64014;53.432;14.534;2022-11-20T00:48:30;9.15;;;4.65;;
75435;SDS011;64014;53.432;14.534;2022-11-20T00:50:56;9.65;;;4.72;;
75435;SDS011;64014;53.432;14.534;2022-11-20T00:53:22;8.98;;;4.13;;
75435;SDS011;64014;53.432;14.534;2022-11-20T00:56:01;7.70;;;4.45;;
75435;SDS011;64014;53.432;14.534;2022-11-20T00:58:32;9.60;;;3.72;;
75435;SDS011;64014;53.432;14.534;2022-11-20T01:03:33;9.02;;;3.85;;
75435;SDS011;64014;53.432;14.534;2022-11-20T01:06:01;7.63;;;3.88;;
75435;SDS011;64014;53.432;14.534;2022-11-20T01:08:32;9.25;;;3.85;;
75435;SDS011;64014;53.432;14.534;2022-11-20T01:11:03;8.90;;;3.72;;
75435;SDS011;64014;53.432;14.534;2022-11-20T01:13:31;8.27;;;3.83;;
75435;SDS011;64014;53.432;14.534;2022-11-20T01:16:12;7.10;;;3.08;;
75435;SDS011;64014;53.432;14.534;2022-11-20T01:18:41;7.90;;;4.32;;
75435;SDS011;64014;53.432;14.534;2022-11-20T01:21:10;7.70;;;3.58;;
75435;SDS011;64014;53.432;14.534;2022-11-20T01:23:38;8.40;;;3.55;;
75435;SDS011;64014;53.432;14.534;2022-11-20T01:26:15;7.15;;;3.42;;
75435;SDS011;64014;53.432;14.534;2022-11-20T01:28:43;7.13;;;3.55;;
75435;SDS011;64014;53.432;14.534;2022-11-20T01:31:16;8.23;;;3.95;;
75435;SDS011;64014;53.432;14.534;2022-11-20T01:33:44;7.20;;;3.42;;
75435;SDS011;64014;53.432;14.534;2022-11-20T01:36:11;6.50;;;3.35;;
75435;SDS011;64014;53.432;14.534;2022-11-20T01:38:38;7.93;;;3.25;;
75435;SDS011;64014;53.432;14.534;2022-11-20T01:41:03;8.32;;;3.55;;
75435;SDS011;64014;53.432;14.534;2022-11-20T01:43:29;5.00;;;2.85;;
75435;SDS011;64014;53.432;14.534;2022-11-20T01:45:56;6.20;;;2.88;;
75435;SDS011;64014;53.432;14.534;2022-11-20T01:48:28;6.43;;;3.25;;
75435;SDS011;64014;53.432;14.534;2022-11-20T01:51:06;6.22;;;2.92;;
75435;SDS011;64014;53.432;14.534;2022-11-20T01:53:40;6.65;;;2.90;;
75435;SDS011;64014;53.432;14.534;2022-11-20T01:56:08;8.02;;;4.03;;
75435;SDS011;64014;53.432;14.534;2022-11-20T01:58:37;6.32;;;3.05;;
75435;SDS011;64014;53.432;14.534;2022-11-20T02:01:06;8.15;;;3.50;;
75435;SDS011;64014;53.432;14.534;2022-11-20T02:03:31;5.22;;;2.78;;
75435;SDS011;64014;53.432;14.534;2022-11-20T02:06:01;7.43;;;3.10;;
75435;SDS011;64014;53.432;14.534;2022-11-20T02:08:40;6.50;;;3.13;;
75435;SDS011;64014;53.432;14.534;2022-11-20T02:11:06;8.10;;;3.00;;
75435;SDS011;64014;53.432;14.534;2022-11-20T02:13:32;5.68;;;2.97;;
75435;SDS011;64014;53.432;14.534;2022-11-20T02:16:18;6.82;;;2.80;;
75435;SDS011;64014;53.432;14.534;2022-11-20T02:18:54;6.68;;;3.13;;
75435;SDS011;64014;53.432;14.534;2022-11-20T02:24:03;6.82;;;3.35;;
75435;SDS011;64014;53.432;14.534;2022-11-20T02:26:33;8.57;;;3.65;;
75435;SDS011;64014;53.432;14.534;2022-11-20T02:29:06;7.78;;;3.78;;
75435;SDS011;64014;53.432;14.534;2022-11-20T02:31:40;7.20;;;3.35;;
75435;SDS011;64014;53.432;14.534;2022-11-20T02:34:07;6.43;;;3.42;;
75435;SDS011;64014;53.432;14.534;2022-11-20T02:36:33;9.75;;;4.63;;
75435;SDS011;64014;53.432;14.534;2022-11-20T02:39:01;7.82;;;3.90;;
75435;SDS011;64014;53.432;14.534;2022-11-20T02:41:35;8.32;;;3.88;;
75435;SDS011;64014;53.432;14.534;2022-11-20T02:44:03;8.43;;;4.00;;
75435;SDS011;64014;53.432;14.534;2022-11-20T02:46:30;7.15;;;3.50;;
75435;SDS011;64014;53.432;14.534;2022-11-20T02:48:57;7.03;;;4.13;;
75435;SDS011;64014;53.432;14.534;2022-11-20T02:51:22;7.50;;;3.50;;
75435;SDS011;64014;53.432;14.534;2022-11-20T02:53:48;9.00;;;4.00;;
75435;SDS011;64014;53.432;14.534;2022-11-20T02:56:14;8.07;;;3.95;;
75435;SDS011;64014;53.432;14.534;2022-11-20T02:58:41;8.23;;;3.58;;
75435;SDS011;64014;53.432;14.534;2022-11-20T03:01:06;8.98;;;4.35;;
75435;SDS011;64014;53.432;14.534;2022-11-20T03:03:32;7.88;;;3.92;;
75435;SDS011;64014;53.432;14.534;2022-11-20T03:05:58;9.45;;;5.53;;
75435;SDS011;64014;53.432;14.534;2022-11-20T03:08:24;7.78;;;4.25;;
75435;SDS011;64014;53.432;14.534;2022-11-20T03:10:51;10.02;;;5.35;;
75435;SDS011;64014;53.432;14.534;2022-11-20T03:13:17;10.13;;;5.18;;
75435;SDS011;64014;53.432;14.534;2022-11-20T03:15:43;9.48;;;4.53;;
75435;SDS011;64014;53.432;14.534;2022-11-20T03:18:08;10.48;;;4.63;;
75435;SDS011;64014;53.432;14.534;2022-11-20T03:20:34;8.40;;;4.28;;
75435;SDS011;64014;53.432;14.534;2022-11-20T03:23:00;8.52;;;3.88;;
75435;SDS011;64014;53.432;14.534;2022-11-20T03:25:26;7.63;;;3.65;;
75435;SDS011;64014;53.432;14.534;2022-11-20T03:27:52;8.05;;;4.03;;
75435;SDS011;64014;53.432;14.534;2022-11-20T03:30:19;8.40;;;4.22;;
75435;SDS011;64014;53.432;14.534;2022-11-20T03:32:45;7.22;;;4.13;;
75435;SDS011;64014;53.432;14.534;2022-11-20T03:35:10;7.65;;;3.55;;
75435;SDS011;64014;53.432;14.534;2022-11-20T03:37:36;8.35;;;4.03;;
75435;SDS011;64014;53.432;14.534;2022-11-20T03:40:02;7.90;;;4.40;;
75435;SDS011;64014;53.432;14.534;2022-11-20T03:42:28;6.95;;;3.70;;
75435;SDS011;64014;53.432;14.534;2022-11-20T03:45:13;8.00;;;3.75;;
75435;SDS011;64014;53.432;14.534;2022-11-20T03:47:40;8.27;;;3.28;;
75435;SDS011;64014;53.432;14.534;2022-11-20T03:50:06;6.57;;;3.40;;
75435;SDS011;64014;53.432;14.534;2022-11-20T03:52:33;7.82;;;4.57;;
75435;SDS011;64014;53.432;14.534;2022-11-20T03:54:58;7.18;;;3.85;;
75435;SDS011;64014;53.432;14.534;2022-11-20T03:57:24;8.27;;;4.38;;
75435;SDS011;64014;53.432;14.534;2022-11-20T03:59:50;8.55;;;4.13;;
75435;SDS011;64014;53.432;14.534;2022-11-20T04:02:15;9.45;;;4.43;;
75435;SDS011;64014;53.432;14.534;2022-11-20T04:04:41;7.93;;;4.57;;
75435;SDS011;64014;53.432;14.534;2022-11-20T04:07:07;8.75;;;4.35;;
75435;SDS011;64014;53.432;14.534;2022-11-20T04:09:32;8.32;;;3.85;;
75435;SDS011;64014;53.432;14.534;2022-11-20T04:11:58;7.53;;;4.45;;
75435;SDS011;64014;53.432;14.534;2022-11-20T04:14:24;10.43;;;4.05;;
75435;SDS011;64014;53.432;14.534;2022-11-20T04:16:49;8.60;;;3.95;;
75435;SDS011;64014;53.432;14.534;2022-11-20T04:19:15;8.48;;;3.97;;
75435;SDS011;64014;53.432;14.534;2022-11-20T04:21:42;9.00;;;4.68;;
75435;SDS011;64014;53.432;14.534;2022-11-20T04:24:09;9.18;;;4.25;;
75435;SDS011;64014;53.432;14.534;2022-11-20T04:26:38;9.43;;;4.88;;
75435;SDS011;64014;53.432;14.534;2022-11-20T04:29:04;9.13;;;4.35;;
75435;SDS011;64014;53.432;14.534;2022-11-20T04:31:31;8.73;;;4.32;;
75435;SDS011;64014;53.432;14.534;2022-11-20T04:33:59;8.07;;;4.00;;
75435;SDS011;64014;53.432;14.534;2022-11-20T04:36:29;10.25;;;5.45;;
75435;SDS011;64014;53.432;14.534;2022-11-20T04:38:59;8.02;;;4.15;;
75435;SDS011;64014;53.432;14.534;2022-11-20T04:41:30;9.07;;;4.15;;
75435;SDS011;64014;53.432;14.534;2022-11-20T04:43:59;8.98;;;4.65;;
75435;SDS011;64014;53.432;14.534;2022-11-20T04:46:28;10.32;;;4.13;;
75435;SDS011;64014;53.432;14.534;2022-11-20T04:48:55;9.73;;;4.80;;
75435;SDS011;64014;53.432;14.534;2022-11-20T04:51:21;9.10;;;4.30;;
75435;SDS011;64014;53.432;14.534;2022-11-20T04:53:47;8.25;;;4.00;;
75435;SDS011;64014;53.432;14.534;2022-11-20T04:56:13;9.20;;;5.03;;
75435;SDS011;64014;53.432;14.534;2022-11-20T04:58:39;9.10;;;4.82;;
75435;SDS011;64014;53.432;14.534;2022-11-20T05:01:06;10.30;;;4.78;;
75435;SDS011;64014;53.432;14.534;2022-11-20T05:03:37;8.32;;;4.40;;
75435;SDS011;64014;53.432;14.534;2022-11-20T05:06:03;9.85;;;4.88;;
75435;SDS011;64014;53.432;14.534;2022-11-20T05:08:31;9.57;;;4.40;;
75435;SDS011;64014;53.432;14.534;2022-11-20T05:11:04;8.73;;;4.63;;
75435;SDS011;64014;53.432;14.534;2022-11-20T05:13:32;9.90;;;4.88;;
75435;SDS011;64014;53.432;14.534;2022-11-20T05:16:03;9.82;;;5.07;;
75435;SDS011;64014;53.432;14.534;2022-11-20T05:18:30;11.43;;;5.18;;
75435;SDS011;64014;53.432;14.534;2022-11-20T05:20:56;10.38;;;5.57;;
75435;SDS011;64014;53.432;14.534;2022-11-20T05:23:23;11.13;;;5.55;;
75435;SDS011;64014;53.432;14.534;2022-11-20T05:25:56;11.50;;;5.95;;
75435;SDS011;64014;53.432;14.534;2022-11-20T05:28:22;11.88;;;5.22;;
75435;SDS011;64014;53.432;14.534;2022-11-20T05:30:48;10.27;;;5.63;;
75435;SDS011;64014;53.432;14.534;2022-11-20T05:33:14;11.00;;;5.65;;
75435;SDS011;64014;53.432;14.534;2022-11-20T05:35:41;10.60;;;5.53;;
75435;SDS011;64014;53.432;14.534;2022-11-20T05:38:06;11.85;;;5.32;;
75435;SDS011;64014;53.432;14.534;2022-11-20T05:40:32;12.45;;;5.57;;
75435;SDS011;64014;53.432;14.534;2022-11-20T05:42:59;12.40;;;5.97;;
75435;SDS011;64014;53.432;14.534;2022-11-20T05:45:25;12.07;;;5.85;;
75435;SDS011;64014;53.432;14.534;2022-11-20T05:47:50;11.02;;;5.13;;
75435;SDS011;64014;53.432;14.534;2022-11-20T05:50:16;12.07;;;6.00;;
75435;SDS011;64014;53.432;14.534;2022-11-20T05:52:42;11.98;;;6.18;;
75435;SDS011;64014;53.432;14.534;2022-11-20T05:55:07;12.48;;;6.55;;
75435;SDS011;64014;53.432;14.534;2022-11-20T05:57:33;13.15;;;6.15;;
75435;SDS011;64014;53.432;14.534;2022-11-20T05:59:59;12.52;;;5.82;;
75435;SDS011;64014;53.432;14.534;2022-11-20T06:02:25;14.13;;;6.47;;
75435;SDS011;64014;53.432;14.534;2022-11-20T06:04:50;17.70;;;8.02;;
75435;SDS011;64014;53.432;14.534;2022-11-20T06:07:16;12.73;;;6.80;;
75435;SDS011;64014;53.432;14.534;2022-11-20T06:09:42;13.98;;;5.97;;
75435;SDS011;64014;53.432;14.534;2022-11-20T06:12:07;13.40;;;7.20;;
75435;SDS011;64014;53.432;14.534;2022-11-20T06:14:33;15.80;;;7.30;;
75435;SDS011;64014;53.432;14.534;2022-11-20T06:16:59;16.38;;;7.40;;
75435;SDS011;64014;53.432;14.534;2022-11-20T06:19:25;14.55;;;7.35;;
75435;SDS011;64014;53.432;14.534;2022-11-20T06:21:51;14.23;;;6.32;;
75435;SDS011;64014;53.432;14.534;2022-11-20T06:24:17;15.68;;;7.68;;
75435;SDS011;64014;53.432;14.534;2022-11-20T06:26:43;14.45;;;6.72;;
75435;SDS011;64014;53.432;14.534;2022-11-20T06:29:09;15.48;;;7.07;;
75435;SDS011;64014;53.432;14.534;2022-11-20T06:31:35;14.60;;;7.13;;
75435;SDS011;64014;53.432;14.534;2022-11-20T06:34:04;15.50;;;7.13;;
75435;SDS011;64014;53.432;14.534;2022-11-20T06:36:31;14.57;;;6.38;;
75435;SDS011;64014;53.432;14.534;2022-11-20T06:38:57;16.35;;;7.28;;
75435;SDS011;64014;53.432;14.534;2022-11-20T06:41:22;16.10;;;7.35;;
75435;SDS011;64014;53.432;14.534;2022-11-20T06:43:48;24.02;;;11.82;;
75435;SDS011;64014;53.432;14.534;2022-11-20T06:46:14;14.00;;;7.40;;
75435;SDS011;64014;53.432;14.534;2022-11-20T06:48:45;20.67;;;10.80;;
75435;SDS011;64014;53.432;14.534;2022-11-20T06:51:12;18.13;;;8.95;;
75435;SDS011;64014;53.432;14.534;2022-11-20T06:53:38;16.27;;;7.88;;
75435;SDS011;64014;53.432;14.534;2022-11-20T06:56:04;15.23;;;7.07;;
75435;SDS011;64014;53.432;14.534;2022-11-20T06:58:31;15.27;;;6.85;;
75435;SDS011;64014;53.432;14.534;2022-11-20T07:00:58;16.98;;;7.47;;
75435;SDS011;64014;53.432;14.534;2022-11-20T07:03:25;15.82;;;7.57;;
75435;SDS011;64014;53.432;14.534;2022-11-20T07:05:50;16.45;;;8.68;;
75435;SDS011;64014;53.432;14.534;2022-11-20T07:08:16;17.10;;;7.72;;
75435;SDS011;64014;53.432;14.534;2022-11-20T07:10:42;15.73;;;7.93;;
75435;SDS011;64014;53.432;14.534;2022-11-20T07:13:07;15.95;;;7.90;;
75435;SDS011;64014;53.432;14.534;2022-11-20T07:15:33;15.73;;;7.47;;
75435;SDS011;64014;53.432;14.534;2022-11-20T07:17:59;16.08;;;8.15;;
75435;SDS011;64014;53.432;14.534;2022-11-20T07:20:25;15.80;;;7.20;;
75435;SDS011;64014;53.432;14.534;2022-11-20T07:22:54;14.68;;;7.40;;
75435;SDS011;64014;53.432;14.534;2022-11-20T07:25:21;13.98;;;6.63;;
75435;SDS011;64014;53.432;14.534;2022-11-20T07:27:47;15.80;;;8.02;;
75435;SDS011;64014;53.432;14.534;2022-11-20T07:30:14;14.70;;;7.28;;
75435;SDS011;64014;53.432;14.534;2022-11-20T07:32:46;16.35;;;8.52;;
75435;SDS011;64014;53.432;14.534;2022-11-20T07:35:12;15.23;;;7.25;;
75435;SDS011;64014;53.432;14.534;2022-11-20T07:37:38;14.00;;;7.57;;
75435;SDS011;64014;53.432;14.534;2022-11-20T07:40:04;14.70;;;7.65;;
75435;SDS011;64014;53.432;14.534;2022-11-20T07:42:30;16.55;;;7.75;;
75435;SDS011;64014;53.432;14.534;2022-11-20T07:44:56;17.02;;;9.45;;
75435;SDS011;64014;53.432;14.534;2022-11-20T07:47:21;18.10;;;8.30;;
75435;SDS011;64014;53.432;14.534;2022-11-20T07:49:47;17.27;;;9.00;;
75435;SDS011;64014;53.432;14.534;2022-11-20T07:52:13;16.90;;;9.07;;
75435;SDS011;64014;53.432;14.534;2022-11-20T07:54:38;15.43;;;7.88;;
75435;SDS011;64014;53.432;14.534;2022-11-20T07:57:04;16.05;;;8.32;;
75435;SDS011;64014;53.432;14.534;2022-11-20T07:59:30;17.00;;;8.68;;
75435;SDS011;64014;53.432;14.534;2022-11-20T08:01:55;17.35;;;8.32;;
75435;SDS011;64014;53.432;14.534;2022-11-20T08:04:21;14.82;;;7.50;;
75435;SDS011;64014;53.432;14.534;2022-11-20T08:06:48;18.38;;;9.23;;
75435;SDS011;64014;53.432;14.534;2022-11-20T08:09:14;15.80;;;7.95;;
75435;SDS011;64014;53.432;14.534;2022-11-20T08:11:40;17.70;;;9.23;;
75435;SDS011;64014;53.432;14.534;2022-11-20T08:14:24;15.13;;;8.43;;
75435;SDS011;64014;53.432;14.534;2022-11-20T08:16:52;16.10;;;8.05;;
75435;SDS011;64014;53.432;14.534;2022-11-20T08:19:18;13.80;;;7.20;;
75435;SDS011;64014;53.432;14.534;2022-11-20T08:21:44;14.07;;;6.70;;
75435;SDS011;64014;53.432;14.534;2022-11-20T08:24:10;17.25;;;7.78;;
75435;SDS011;64014;53.432;14.534;2022-11-20T08:26:37;15.57;;;7.90;;
75435;SDS011;64014;53.432;14.534;2022-11-20T08:29:03;13.48;;;7.18;;
75435;SDS011;64014;53.432;14.534;2022-11-20T08:31:29;15.73;;;7.32;;
75435;SDS011;64014;53.432;14.534;2022-11-20T08:33:55;15.57;;;7.90;;
75435;SDS011;64014;53.432;14.534;2022-11-20T08:36:22;14.98;;;7.40;;
75435;SDS011;64014;53.432;14.534;2022-11-20T08:38:49;14.48;;;7.53;;
75435;SDS011;64014;53.432;14.534;2022-11-20T08:41:15;16.42;;;7.90;;
75435;SDS011;64014;53.432;14.534;2022-11-20T08:43:55;16.35;;;8.30;;
75435;SDS011;64014;53.432;14.534;2022-11-20T08:46:22;15.40;;;8.45;;
75435;SDS011;64014;53.432;14.534;2022-11-20T08:48:49;15.95;;;8.80;;
75435;SDS011;64014;53.432;14.534;2022-11-20T08:51:15;13.77;;;8.10;;
75435;SDS011;64014;53.432;14.534;2022-11-20T08:53:41;16.20;;;8.57;;
75435;SDS011;64014;53.432;14.534;2022-11-20T08:56:07;15.25;;;7.85;;
75435;SDS011;64014;53.432;14.534;2022-11-20T08:58:34;17.45;;;8.60;;
75435;SDS011;64014;53.432;14.534;2022-11-20T09:01:01;16.65;;;8.32;;
75435;SDS011;64014;53.432;14.534;2022-11-20T09:03:26;15.45;;;8.68;;
75435;SDS011;64014;53.432;14.534;2022-11-20T09:06:02;15.05;;;8.43;;
75435;SDS011;64014;53.432;14.534;2022-11-20T09:08:29;16.60;;;8.15;;
75435;SDS011;64014;53.432;14.534;2022-11-20T09:10:55;17.88;;;9.15;;
75435;SDS011;64014;53.432;14.534;2022-11-20T09:13:22;15.75;;;8.63;;
75435;SDS011;64014;53.432;14.534;2022-11-20T09:15:59;16.77;;;9.05;;
75435;SDS011;64014;53.432;14.534;2022-11-20T09:18:27;15.52;;;8.45;;
75435;SDS011;64014;53.432;14.534;2022-11-20T09:21:00;16.58;;;9.32;;
75435;SDS011;64014;53.432;14.534;2022-11-20T09:23:27;19.05;;;10.05;;
75435;SDS011;64014;53.432;14.534;2022-11-20T09:25:56;20.50;;;11.10;;
75435;SDS011;64014;53.432;14.534;2022-11-20T09:28:24;18.17;;;10.63;;
75435;SDS011;64014;53.432;14.534;2022-11-20T09:30:51;18.92;;;10.80;;
75435;SDS011;64014;53.432;14.534;2022-11-20T09:33:17;19.67;;;10.73;;
75435;SDS011;64014;53.432;14.534;2022-11-20T09:35:43;26.65;;;12.63;;
75435;SDS011;64014;53.432;14.534;2022-11-20T09:38:09;41.70;;;21.20;;
75435;SDS011;64014;53.432;14.534;2022-11-20T09:40:39;20.40;;;10.70;;
75435;SDS011;64014;53.432;14.534;2022-11-20T09:49:17;21.65;;;12.88;;
75435;SDS011;64014;53.432;14.534;2022-11-20T09:51:57;16.73;;;10.32;;
75435;SDS011;64014;53.432;14.534;2022-11-20T09:54:37;21.52;;;12.02;;
75435;SDS011;64014;53.432;14.534;2022-11-20T09:57:25;17.38;;;9.93;;
75435;SDS011;64014;53.432;14.534;2022-11-20T10:10:42;19.13;;;9.15;;
75435;SDS011;64014;53.432;14.534;2022-11-20T10:13:26;18.75;;;10.73;;
75435;SDS011;64014;53.432;14.534;2022-11-20T10:16:09;21.25;;;10.15;;
75435;SDS011;64014;53.432;14.534;2022-11-20T10:18:58;15.90;;;8.15;;
75435;SDS011;64014;53.432;14.534;2022-11-20T10:21:58;21.80;;;11.57;;
75435;SDS011;64014;53.432;14.534;2022-11-20T10:32:37;18.27;;;9.77;;
75435;SDS011;64014;53.432;14.534;2022-11-20T10:35:20;19.45;;;10.50;;
75435;SDS011;64014;53.432;14.534;2022-11-20T10:37:55;19.27;;;10.77;;
75435;SDS011;64014;53.432;14.534;2022-11-20T10:43:13;18.73;;;9.27;;
75435;SDS011;64014;53.432;14.534;2022-11-20T10:45:46;18.88;;;9.82;;
75435;SDS011;64014;53.432;14.534;2022-11-20T10:48:26;21.40;;;11.07;;
75435;SDS011;64014;53.432;14.534;2022-11-20T10:53:38;20.20;;;10.93;;
75435;SDS011;64014;53.432;14.534;2022-11-20T10:59:38;18.65;;;9.70;;
75435;SDS011;64014;53.432;14.534;2022-11-20T11:02:48;17.50;;;8.73;;
75435;SDS011;64014;53.432;14.534;2022-11-20T11:08:10;19.35;;;10.25;;
75435;SDS011;64014;53.432;14.534;2022-11-20T11:10:46;20.70;;;10.95;;
75435;SDS011;64014;53.432;14.534;2022-11-20T11:13:22;20.15;;;10.02;;
75435;SDS011;64014;53.432;14.534;2022-11-20T11:15:53;20.98;;;10.25;;
75435;SDS011;64014;53.432;14.534;2022-11-20T11:18:23;19.27;;;10.27;;
75435;SDS011;64014;53.432;14.534;2022-11-20T11:20:51;19.98;;;11.20;;
75435;SDS011;64014;53.432;14.534;2022-11-20T11:26:05;17.58;;;8.90;;
75435;SDS011;64014;53.432;14.534;2022-11-20T11:28:32;20.20;;;10.65;;
75435;SDS011;64014;53.432;14.534;2022-11-20T11:30:59;35.55;;;18.17;;
75435;SDS011;64014;53.432;14.534;2022-11-20T11:33:25;19.52;;;10.13;;
75435;SDS011;64014;53.432;14.534;2022-11-20T11:35:54;17.15;;;8.38;;
75435;SDS011;64014;53.432;14.534;2022-11-20T11:38:27;18.45;;;9.30;;
75435;SDS011;64014;53.432;14.534;2022-11-20T11:40:55;20.20;;;9.95;;
75435;SDS011;64014;53.432;14.534;2022-11-20T11:43:23;15.77;;;7.78;;
75435;SDS011;64014;53.432;14.534;2022-11-20T11:46:31;17.92;;;8.43;;
75435;SDS011;64014;53.432;14.534;2022-11-20T11:51:31;14.82;;;7.57;;
75435;SDS011;64014;53.432;14.534;2022-11-20T11:54:06;18.52;;;8.63;;
75435;SDS011;64014;53.432;14.534;2022-11-20T11:56:46;18.23;;;9.25;;
75435;SDS011;64014;53.432;14.534;2022-11-20T11:59:15;14.43;;;7.03;;
75435;SDS011;64014;53.432;14.534;2022-11-20T12:01:53;19.70;;;9.07;;
75435;SDS011;64014;53.432;14.534;2022-11-20T12:07:04;18.35;;;9.18;;
75435;SDS011;64014;53.432;14.534;2022-11-20T12:09:42;19.00;;;9.43;;
75435;SDS011;64014;53.432;14.534;2022-11-20T12:12:17;17.90;;;8.55;;
75435;SDS011;64014;53.432;14.534;2022-11-20T12:14:46;19.48;;;9.18;;
75435;SDS011;64014;53.432;14.534;2022-11-20T12:17:15;20.17;;;9.63;;
75435;SDS011;64014;53.432;14.534;2022-11-20T12:19:41;18.63;;;10.02;;
75435;SDS011;64014;53.432;14.534;2022-11-20T12:27:32;19.63;;;9.40;;
75435;SDS011;64014;53.432;14.534;2022-11-20T12:41:00;19.80;;;10.43;;
75435;SDS011;64014;53.432;14.534;2022-11-20T12:43:33;18.65;;;10.15;;
75435;SDS011;64014;53.432;14.534;2022-11-20T12:46:45;16.70;;;8.20;;
75435;SDS011;64014;53.432;14.534;2022-11-20T12:49:22;17.70;;;9.48;;
75435;SDS011;64014;53.432;14.534;2022-11-20T12:52:28;19.00;;;10.52;;
75435;SDS011;64014;53.432;14.534;2022-11-20T12:55:14;20.33;;;10.75;;
75435;SDS011;64014;53.432;14.534;2022-11-20T12:57:55;19.50;;;9.50;;
75435;SDS011;64014;53.432;14.534;2022-11-20T13:00:23;19.63;;;10.80;;
75435;SDS011;64014;53.432;14.534;2022-11-20T13:08:29;19.92;;;10.90;;
75435;SDS011;64014;53.432;14.534;2022-11-20T13:13:42;19.25;;;11.13;;
75435;SDS011;64014;53.432;14.534;2022-11-20T13:16:35;29.00;;;13.75;;
75435;SDS011;64014;53.432;14.534;2022-11-20T13:19:09;21.88;;;11.95;;
75435;SDS011;64014;53.432;14.534;2022-11-20T13:21:42;34.13;;;19.55;;
75435;SDS011;64014;53.432;14.534;2022-11-20T13:27:33;72.40;;;39.80;;
75435;SDS011;64014;53.432;14.534;2022-11-20T13:29:43;25.67;;;15.80;;
75435;SDS011;64014;53.432;14.534;2022-11-20T13:34:51;53.38;;;23.30;;
75435;SDS011;64014;53.432;14.534;2022-11-20T13:37:33;37.75;;;18.92;;
75435;SDS011;64014;53.432;14.534;2022-11-20T13:45:30;148.27;;;51.97;;
75435;SDS011;64014;53.432;14.534;2022-11-20T13:47:58;95.47;;;37.40;;
75435;SDS011;64014;53.432;14.534;2022-11-20T13:51:12;105.90;;;41.78;;
75435;SDS011;64014;53.432;14.534;2022-11-20T13:58:50;23.90;;;13.05;;
75435;SDS011;64014;53.432;14.534;2022-11-20T14:01:43;22.15;;;13.02;;
75435;SDS011;64014;53.432;14.534;2022-11-20T14:04:13;22.55;;;12.25;;
75435;SDS011;64014;53.432;14.534;2022-11-20T14:06:43;21.05;;;10.45;;
75435;SDS011;64014;53.432;14.534;2022-11-20T14:09:12;22.40;;;11.30;;
75435;SDS011;64014;53.432;14.534;2022-11-20T14:11:50;20.75;;;11.50;;
75435;SDS011;64014;53.432;14.534;2022-11-20T14:14:17;20.50;;;11.95;;
75435;SDS011;64014;53.432;14.534;2022-11-20T14:16:45;20.38;;;10.10;;
75435;SDS011;64014;53.432;14.534;2022-11-20T14:19:30;20.00;;;11.00;;
75435;SDS011;64014;53.432;14.534;2022-11-20T14:24:48;22.63;;;11.90;;
75435;SDS011;64014;53.432;14.534;2022-11-20T14:27:18;18.73;;;12.20;;
75435;SDS011;64014;53.432;14.534;2022-11-20T14:29:46;30.33;;;15.93;;
75435;SDS011;64014;53.432;14.534;2022-11-20T14:32:14;20.95;;;12.55;;
75435;SDS011;64014;53.432;14.534;2022-11-20T14:34:43;19.92;;;10.98;;
75435;SDS011;64014;53.432;14.534;2022-11-20T14:37:13;21.02;;;12.00;;
75435;SDS011;64014;53.432;14.534;2022-11-20T14:39:48;19.75;;;10.90;;
75435;SDS011;64014;53.432;14.534;2022-11-20T14:42:23;17.75;;;9.98;;
75435;SDS011;64014;53.432;14.534;2022-11-20T14:44:50;18.33;;;10.45;;
75435;SDS011;64014;53.432;14.534;2022-11-20T14:47:22;27.83;;;14.75;;
75435;SDS011;64014;53.432;14.534;2022-11-20T14:49:54;24.42;;;13.20;;
75435;SDS011;64014;53.432;14.534;2022-11-20T14:52:22;23.92;;;12.48;;
75435;SDS011;64014;53.432;14.534;2022-11-20T14:54:56;28.27;;;15.65;;
75435;SDS011;64014;53.432;14.534;2022-11-20T14:57:27;63.42;;;24.45;;
75435;SDS011;64014;53.432;14.534;2022-11-20T15:02:40;72.07;;;27.83;;
75435;SDS011;64014;53.432;14.534;2022-11-20T15:05:07;29.83;;;14.98;;
75435;SDS011;64014;53.432;14.534;2022-11-20T15:07:36;20.35;;;11.40;;
75435;SDS011;64014;53.432;14.534;2022-11-20T15:10:12;19.80;;;11.13;;
75435;SDS011;64014;53.432;14.534;2022-11-20T15:12:50;16.60;;;9.55;;
75435;SDS011;64014;53.432;14.534;2022-11-20T15:15:29;20.35;;;11.50;;
75435;SDS011;64014;53.432;14.534;2022-11-20T15:18:12;16.83;;;10.02;;
75435;SDS011;64014;53.432;14.534;2022-11-20T15:20:40;19.05;;;11.15;;
75435;SDS011;64014;53.432;14.534;2022-11-20T15:23:14;23.95;;;12.45;;
75435;SDS011;64014;53.432;14.534;2022-11-20T15:25:41;20.48;;;11.88;;
75435;SDS011;64014;53.432;14.534;2022-11-20T15:30:47;36.90;;;17.73;;
75435;SDS011;64014;53.432;14.534;2022-11-20T15:33:14;42.58;;;17.42;;
75435;SDS011;64014;53.432;14.534;2022-11-20T15:35:40;32.08;;;15.18;;
75435;SDS011;64014;53.432;14.534;2022-11-20T15:38:06;24.33;;;14.82;;
75435;SDS011;64014;53.432;14.534;2022-11-20T15:40:32;20.35;;;11.70;;
75435;SDS011;64014;53.432;14.534;2022-11-20T15:42:58;21.70;;;12.05;;
75435;SDS011;64014;53.432;14.534;2022-11-20T15:45:33;24.00;;;13.63;;
75435;SDS011;64014;53.432;14.534;2022-11-20T15:48:05;22.10;;;13.65;;
75435;SDS011;64014;53.432;14.534;2022-11-20T15:51:00;17.20;;;9.15;;
75435;SDS011;64014;53.432;14.534;2022-11-20T15:53:35;22.05;;;11.98;;
75435;SDS011;64014;53.432;14.534;2022-11-20T15:56:02;42.38;;;23.80;;
75435;SDS011;64014;53.432;14.534;2022-11-20T15:58:28;32.78;;;15.18;;
75435;SDS011;64014;53.432;14.534;2022-11-20T16:00:54;24.75;;;10.68;;
75435;SDS011;64014;53.432;14.534;2022-11-20T16:03:20;21.65;;;12.30;;
75435;SDS011;64014;53.432;14.534;2022-11-20T16:05:46;20.45;;;10.93;;
75435;SDS011;64014;53.432;14.534;2022-11-20T16:08:11;19.73;;;11.93;;
75435;SDS011;64014;53.432;14.534;2022-11-20T16:10:37;21.63;;;12.35;;
75435;SDS011;64014;53.432;14.534;2022-11-20T16:13:03;26.42;;;12.45;;
75435;SDS011;64014;53.432;14.534;2022-11-20T16:15:53;18.77;;;10.25;;